TAF Text Data
IDs:
Format:
Raw Decoded Include METAR

Data at: 2345 UTC 23 Oct 2019

KDVN 232252Z AUTO 28004KT 10SM OVC070 13/05 A2991 RMK AO2 RAE14 SLP127 P0000 T01280050


KMLI 232252Z 12003KT 10SM OVC075 13/07 A2988 RMK AO2 SLP119 T01280072

KMLI 232320Z 2400/2424 VRB03KT P6SM OVC070
  TEMPO 2400/2401 6SM -SHRA
  FM240100 35009KT P6SM OVC035
  FM240600 32008KT P6SM SCT025 OVC035